createdAt,value
2022-08-02T00:00:58.027Z,992.78
2022-08-02T00:01:58.067Z,992.76
2022-08-02T00:02:57.994Z,992.76
2022-08-02T00:03:57.983Z,992.72
2022-08-02T00:04:57.984Z,992.71
2022-08-02T00:05:58.026Z,992.70
2022-08-02T00:06:57.960Z,992.74
2022-08-02T00:07:57.943Z,992.72
2022-08-02T00:08:57.933Z,992.72
2022-08-02T00:09:57.925Z,992.74
2022-08-02T00:10:57.930Z,992.72
2022-08-02T00:11:57.943Z,992.75
2022-08-02T00:12:57.897Z,992.80
2022-08-02T00:13:57.896Z,992.78
2022-08-02T00:14:57.874Z,992.79
2022-08-02T00:15:57.876Z,992.80
2022-08-02T00:16:57.864Z,992.77
2022-08-02T00:17:57.883Z,992.79
2022-08-02T00:18:57.847Z,992.79
2022-08-02T00:19:57.849Z,992.79
2022-08-02T00:20:57.816Z,992.78
2022-08-02T00:21:57.815Z,992.84
2022-08-02T00:22:57.826Z,992.80
2022-08-02T00:24:29.222Z,992.83
2022-08-02T00:24:58.796Z,992.78
2022-08-02T00:26:02.456Z,992.80
2022-08-02T00:26:57.756Z,992.78
2022-08-02T00:27:57.764Z,992.81
2022-08-02T00:28:57.725Z,992.80
2022-08-02T00:29:57.748Z,992.77
2022-08-02T00:30:57.736Z,992.75
2022-08-02T00:31:57.696Z,992.77
2022-08-02T00:32:57.686Z,992.81
2022-08-02T00:34:26.938Z,992.82
2022-08-02T00:34:58.685Z,992.81
2022-08-02T00:35:57.680Z,992.78
2022-08-02T00:36:57.697Z,992.80
2022-08-02T00:37:57.653Z,992.81
2022-08-02T00:38:57.639Z,992.81
2022-08-02T00:39:57.628Z,992.86
2022-08-02T00:40:58.215Z,992.82
2022-08-02T00:41:57.638Z,992.85
2022-08-02T00:42:57.597Z,992.84
2022-08-02T00:43:57.585Z,992.80
2022-08-02T00:44:57.567Z,992.78
2022-08-02T00:46:01.952Z,992.80
2022-08-02T00:46:58.547Z,992.76
2022-08-02T00:47:57.563Z,992.75
2022-08-02T00:48:57.582Z,992.77
2022-08-02T00:49:58.477Z,992.74
2022-08-02T00:50:58.468Z,992.80
2022-08-02T00:51:57.691Z,992.80
2022-08-02T00:52:57.513Z,992.73
2022-08-02T00:53:57.479Z,992.77
2022-08-02T00:54:57.479Z,992.75
2022-08-02T00:55:57.488Z,992.76
2022-08-02T00:56:57.460Z,992.80
2022-08-02T00:57:57.449Z,992.77
2022-08-02T00:58:57.427Z,992.80
2022-08-02T00:59:57.418Z,992.78
2022-08-02T01:00:57.417Z,992.78
2022-08-02T01:01:58.420Z,992.82
2022-08-02T01:02:57.388Z,992.82
2022-08-02T01:03:57.389Z,992.79
2022-08-02T01:04:57.389Z,992.85
2022-08-02T01:06:10.867Z,992.81
2022-08-02T01:06:58.365Z,992.82
2022-08-02T01:07:57.352Z,992.79
2022-08-02T01:08:57.342Z,992.81
2022-08-02T01:09:57.333Z,992.81
2022-08-02T01:10:57.342Z,992.80
2022-08-02T01:11:57.311Z,992.78
2022-08-02T01:12:58.293Z,992.83
2022-08-02T01:13:57.288Z,992.84
2022-08-02T01:14:57.279Z,992.82
2022-08-02T01:15:57.270Z,992.83
2022-08-02T01:16:57.249Z,992.86
2022-08-02T01:17:57.241Z,992.84
2022-08-02T01:18:57.230Z,992.83
2022-08-02T01:19:57.230Z,992.87
2022-08-02T01:20:57.231Z,992.84
2022-08-02T01:21:57.241Z,992.82
2022-08-02T01:23:02.128Z,992.84
2022-08-02T01:23:58.184Z,992.79
2022-08-02T01:24:57.172Z,992.85
2022-08-02T01:25:57.182Z,992.86
2022-08-02T01:26:57.193Z,992.80
2022-08-02T01:27:57.143Z,992.86
2022-08-02T01:28:57.145Z,992.85
2022-08-02T01:29:57.133Z,992.84
2022-08-02T01:30:57.111Z,992.84
2022-08-02T01:31:57.126Z,992.82
2022-08-02T01:32:57.093Z,992.77
2022-08-02T01:33:57.074Z,992.85
2022-08-02T01:34:57.081Z,992.77
2022-08-02T01:35:57.053Z,992.84
2022-08-02T01:36:57.053Z,992.77
2022-08-02T01:37:57.056Z,992.82
2022-08-02T01:38:57.035Z,992.80
2022-08-02T01:39:57.015Z,992.81
2022-08-02T01:40:57.035Z,992.84
2022-08-02T01:41:58.897Z,992.84
2022-08-02T01:42:57.015Z,992.85
2022-08-02T01:43:57.014Z,992.83
2022-08-02T01:44:56.981Z,992.81
2022-08-02T01:45:56.985Z,992.80
2022-08-02T01:46:56.945Z,992.83
2022-08-02T01:47:56.933Z,992.83
2022-08-02T01:48:56.999Z,992.85
2022-08-02T01:49:56.944Z,992.83
2022-08-02T01:50:57.903Z,992.86
2022-08-02T01:51:56.907Z,992.92
2022-08-02T01:52:56.892Z,992.87
2022-08-02T01:53:56.923Z,992.84
2022-08-02T01:54:56.908Z,992.85
2022-08-02T01:55:58.953Z,992.84
2022-08-02T01:56:56.845Z,992.84
2022-08-02T01:57:56.866Z,992.84
2022-08-02T01:58:56.829Z,992.76
2022-08-02T01:59:56.836Z,992.86
2022-08-02T02:00:56.896Z,992.85
2022-08-02T02:01:56.796Z,992.81
2022-08-02T02:02:56.804Z,992.83
2022-08-02T02:03:56.836Z,992.83
2022-08-02T02:04:56.765Z,992.82
2022-08-02T02:05:56.758Z,992.86
2022-08-02T02:06:56.927Z,992.86
2022-08-02T02:07:56.727Z,992.89
2022-08-02T02:08:56.727Z,992.86
2022-08-02T02:09:56.726Z,992.95
2022-08-02T02:10:56.723Z,992.96
2022-08-02T02:12:06.113Z,992.99
2022-08-02T02:12:57.697Z,993.00
2022-08-02T02:13:56.679Z,992.94
2022-08-02T02:14:56.667Z,992.93
2022-08-02T02:15:56.677Z,992.95
2022-08-02T02:16:56.650Z,992.92
2022-08-02T02:18:12.548Z,992.94
2022-08-02T02:18:57.620Z,992.92
2022-08-02T02:19:56.627Z,992.89
2022-08-02T02:20:56.606Z,992.84
2022-08-02T02:21:56.617Z,992.86
2022-08-02T02:22:56.589Z,992.85
2022-08-02T02:23:56.569Z,992.85
2022-08-02T02:24:56.569Z,992.85
2022-08-02T02:25:56.614Z,992.86
2022-08-02T02:26:56.537Z,992.91
2022-08-02T02:27:57.168Z,992.86
2022-08-02T02:28:56.519Z,992.85
2022-08-02T02:29:56.521Z,992.84
2022-08-02T02:30:56.538Z,992.81
2022-08-02T02:31:56.496Z,992.83
2022-08-02T02:32:56.482Z,992.83
2022-08-02T02:33:56.469Z,992.87
2022-08-02T02:34:56.470Z,992.81
2022-08-02T02:35:56.488Z,992.82
2022-08-02T02:36:56.491Z,992.81
2022-08-02T02:37:56.443Z,992.84
2022-08-02T02:38:56.422Z,992.88
2022-08-02T02:39:56.411Z,992.79
2022-08-02T02:40:56.424Z,992.78
2022-08-02T02:41:56.400Z,992.79
2022-08-02T02:42:56.440Z,992.80
2022-08-02T02:43:56.369Z,992.78
2022-08-02T02:44:56.361Z,992.78
2022-08-02T02:45:56.350Z,992.74
2022-08-02T02:46:56.350Z,992.76
2022-08-02T02:47:56.372Z,992.75
2022-08-02T02:48:56.376Z,992.77
2022-08-02T02:49:56.316Z,992.76
2022-08-02T02:50:56.301Z,992.79
2022-08-02T02:51:56.293Z,992.78
2022-08-02T02:52:56.281Z,992.80
2022-08-02T02:54:31.016Z,992.79
2022-08-02T02:54:57.289Z,992.81
2022-08-02T02:56:01.783Z,992.79
2022-08-02T02:56:57.261Z,992.77
2022-08-02T02:57:56.253Z,992.76
2022-08-02T02:58:56.231Z,992.77
2022-08-02T02:59:56.242Z,992.78
2022-08-02T03:00:56.238Z,992.78
2022-08-02T03:01:58.082Z,992.79
2022-08-02T03:02:56.180Z,992.81
2022-08-02T03:03:56.160Z,992.83
2022-08-02T03:04:58.117Z,992.79
2022-08-02T03:06:52.439Z,992.81
2022-08-02T03:07:52.448Z,992.86
2022-08-02T03:08:53.382Z,992.82
2022-08-02T03:09:54.026Z,992.86
2022-08-02T03:10:52.400Z,992.82
2022-08-02T03:11:52.370Z,992.85
2022-08-02T03:12:54.061Z,992.84
2022-08-02T03:13:52.401Z,992.85
2022-08-02T03:14:52.362Z,992.88
2022-08-02T03:15:52.351Z,992.85
2022-08-02T03:16:52.338Z,992.84
2022-08-02T03:17:52.309Z,992.85
2022-08-02T03:18:52.339Z,992.82
2022-08-02T03:19:52.330Z,992.82
2022-08-02T03:20:52.397Z,992.90
2022-08-02T03:21:57.180Z,992.84
2022-08-02T03:22:53.261Z,992.81
2022-08-02T03:23:52.260Z,992.78
2022-08-02T03:24:52.269Z,992.79
2022-08-02T03:25:52.311Z,992.80
2022-08-02T03:26:52.242Z,992.79
2022-08-02T03:27:52.221Z,992.78
2022-08-02T03:28:52.231Z,992.78
2022-08-02T03:29:52.192Z,992.78
2022-08-02T03:30:52.593Z,992.78
2022-08-02T03:31:52.183Z,992.79
2022-08-02T03:32:52.162Z,992.76
2022-08-02T03:33:52.159Z,992.79
2022-08-02T03:34:52.172Z,992.80
2022-08-02T03:35:52.132Z,992.77
2022-08-02T03:36:52.112Z,992.83
2022-08-02T03:37:52.781Z,992.82
2022-08-02T03:38:52.101Z,992.84
2022-08-02T03:39:53.062Z,992.82
2022-08-02T03:40:52.133Z,992.80
2022-08-02T03:41:52.075Z,992.85
2022-08-02T03:42:52.102Z,992.85
2022-08-02T03:43:52.063Z,992.89
2022-08-02T03:44:52.033Z,992.82
2022-08-02T03:45:52.012Z,992.82
2022-08-02T03:46:52.032Z,992.82
2022-08-02T03:47:52.032Z,992.79
2022-08-02T03:48:52.060Z,992.78
2022-08-02T03:49:51.997Z,992.76
2022-08-02T03:50:51.970Z,992.81
2022-08-02T03:51:51.915Z,992.83
2022-08-02T03:52:51.903Z,992.78
2022-08-02T03:53:51.917Z,992.82
2022-08-02T03:54:51.893Z,992.86
2022-08-02T03:55:51.935Z,992.88
2022-08-02T03:56:51.885Z,992.88
2022-08-02T03:57:51.843Z,992.89
2022-08-02T03:58:51.841Z,992.95
2022-08-02T03:59:51.841Z,992.93
2022-08-02T04:00:51.867Z,992.93
2022-08-02T04:01:51.953Z,992.93
2022-08-02T04:02:51.825Z,992.91
2022-08-02T04:03:51.784Z,992.91
2022-08-02T04:04:51.776Z,992.93
2022-08-02T04:06:03.853Z,992.96
2022-08-02T04:06:52.756Z,992.94
2022-08-02T04:08:02.720Z,992.93
2022-08-02T04:08:52.756Z,992.92
2022-08-02T04:09:51.736Z,992.88
2022-08-02T04:10:51.716Z,992.85
2022-08-02T04:11:51.695Z,992.86
2022-08-02T04:12:51.727Z,992.85
2022-08-02T04:13:51.686Z,992.91
2022-08-02T04:14:52.124Z,992.85
2022-08-02T04:15:51.678Z,992.85
2022-08-02T04:16:51.667Z,992.87
2022-08-02T04:17:51.647Z,992.87
2022-08-02T04:18:51.646Z,992.87
2022-08-02T04:19:51.678Z,992.87
2022-08-02T04:20:51.669Z,992.93
2022-08-02T04:21:52.500Z,992.94
2022-08-02T04:22:51.597Z,992.97
2022-08-02T04:23:51.776Z,993.02
2022-08-02T04:24:53.388Z,993.01
2022-08-02T04:25:51.608Z,993.06
2022-08-02T04:26:51.557Z,993.04
2022-08-02T04:28:17.010Z,993.07
2022-08-02T04:28:52.537Z,992.98
2022-08-02T04:29:51.526Z,993.02
2022-08-02T04:30:51.526Z,993.02
2022-08-02T04:31:51.508Z,993.01
2022-08-02T04:32:51.527Z,993.00
2022-08-02T04:33:51.478Z,992.99
2022-08-02T04:35:11.708Z,993.01
2022-08-02T04:35:56.485Z,993.05
2022-08-02T04:36:52.459Z,993.04
2022-08-02T04:38:08.907Z,993.05
2022-08-02T04:38:52.439Z,993.05
2022-08-02T04:39:51.418Z,993.09
2022-08-02T04:40:51.441Z,993.13
2022-08-02T04:41:55.733Z,993.10
2022-08-02T04:42:52.392Z,993.07
2022-08-02T04:43:51.389Z,993.09
2022-08-02T04:44:51.396Z,993.07
2022-08-02T04:45:51.359Z,993.13
2022-08-02T04:46:51.358Z,993.11
2022-08-02T04:48:03.656Z,993.19
2022-08-02T04:48:52.355Z,993.19
2022-08-02T04:49:51.339Z,993.18
2022-08-02T04:50:51.341Z,993.20
2022-08-02T04:51:51.287Z,993.24
2022-08-02T04:52:51.487Z,993.23
2022-08-02T04:53:51.269Z,993.24
2022-08-02T04:54:51.258Z,993.26
2022-08-02T04:55:55.970Z,993.21
2022-08-02T04:56:51.239Z,993.23
2022-08-02T04:57:52.839Z,993.24
2022-08-02T04:58:51.653Z,993.21
2022-08-02T04:59:54.497Z,993.18
2022-08-02T05:00:51.273Z,993.21
2022-08-02T05:01:51.193Z,993.18
2022-08-02T05:02:51.181Z,993.20
2022-08-02T05:03:51.172Z,993.21
2022-08-02T05:04:51.284Z,993.24
2022-08-02T05:05:51.153Z,993.22
2022-08-02T05:06:51.202Z,993.27
2022-08-02T05:07:51.140Z,993.25
2022-08-02T05:08:53.078Z,993.24
2022-08-02T05:09:51.120Z,993.24
2022-08-02T05:10:51.121Z,993.24
2022-08-02T05:11:54.845Z,993.23
2022-08-02T05:12:51.132Z,993.25
2022-08-02T05:13:57.906Z,993.24
2022-08-02T05:14:52.091Z,993.22
2022-08-02T05:15:51.060Z,993.26
2022-08-02T05:16:51.042Z,993.19
2022-08-02T05:17:51.081Z,993.23
2022-08-02T05:18:51.032Z,993.21
2022-08-02T05:19:51.064Z,993.23
2022-08-02T05:20:54.058Z,993.26
2022-08-02T05:21:52.016Z,993.22
2022-08-02T05:22:51.007Z,993.25
2022-08-02T05:23:50.951Z,993.22
2022-08-02T05:24:50.952Z,993.22
2022-08-02T05:25:50.992Z,993.21
2022-08-02T05:26:50.938Z,993.23
2022-08-02T05:27:50.921Z,993.25
2022-08-02T05:28:50.976Z,993.23
2022-08-02T05:29:53.146Z,993.24
2022-08-02T05:30:50.923Z,993.26
2022-08-02T05:31:51.003Z,993.25
2022-08-02T05:32:50.916Z,993.25
2022-08-02T05:33:50.877Z,993.30
2022-08-02T05:34:50.870Z,993.31
2022-08-02T05:35:50.844Z,993.32
2022-08-02T05:36:50.847Z,993.37
2022-08-02T05:37:50.895Z,993.35
2022-08-02T05:38:50.849Z,993.41
2022-08-02T05:39:55.748Z,993.39
2022-08-02T05:40:54.496Z,993.40
2022-08-02T05:41:50.783Z,993.47
2022-08-02T05:42:50.794Z,993.42
2022-08-02T05:43:50.756Z,993.40
2022-08-02T05:44:50.777Z,993.43
2022-08-02T05:45:50.745Z,993.40
2022-08-02T05:46:50.770Z,993.39
2022-08-02T05:47:52.415Z,993.41
2022-08-02T05:48:50.750Z,993.45
2022-08-02T05:49:50.725Z,993.44
2022-08-02T05:50:50.695Z,993.48
2022-08-02T05:51:50.674Z,993.48
2022-08-02T05:52:50.682Z,993.49
2022-08-02T05:53:50.790Z,993.47
2022-08-02T05:54:50.634Z,993.50
2022-08-02T05:55:50.696Z,993.56
2022-08-02T05:56:50.629Z,993.51
2022-08-02T05:57:50.618Z,993.53
2022-08-02T05:58:50.610Z,993.50
2022-08-02T05:59:50.599Z,993.53
2022-08-02T06:00:50.601Z,993.51
2022-08-02T06:01:51.646Z,993.57
2022-08-02T06:02:50.619Z,993.52
2022-08-02T06:03:50.558Z,993.62
2022-08-02T06:04:50.555Z,993.56
2022-08-02T06:05:50.535Z,993.58
2022-08-02T06:06:50.555Z,993.61
2022-08-02T06:07:50.582Z,993.57
2022-08-02T06:08:51.201Z,993.54
2022-08-02T06:09:50.486Z,993.57
2022-08-02T06:10:50.479Z,993.53
2022-08-02T06:12:02.250Z,993.52
2022-08-02T06:12:51.693Z,993.49
2022-08-02T06:13:50.438Z,993.48
2022-08-02T06:14:54.384Z,993.44
2022-08-02T06:15:53.165Z,993.44
2022-08-02T06:16:50.430Z,993.43
2022-08-02T06:17:50.626Z,993.42
2022-08-02T06:18:50.429Z,993.47
2022-08-02T06:19:52.206Z,993.46
2022-08-02T06:20:50.387Z,993.38
2022-08-02T06:22:32.598Z,993.42
2022-08-02T06:22:51.338Z,993.46
2022-08-02T06:23:58.679Z,993.38
2022-08-02T06:24:51.425Z,993.45
2022-08-02T06:25:51.752Z,993.41
2022-08-02T06:26:50.318Z,993.40
2022-08-02T06:27:50.308Z,993.40
2022-08-02T06:28:50.332Z,993.37
2022-08-02T06:29:50.344Z,993.32
2022-08-02T06:30:50.327Z,993.32
2022-08-02T06:31:50.288Z,993.26
2022-08-02T06:32:50.270Z,993.25
2022-08-02T06:33:50.710Z,993.27
2022-08-02T06:34:50.249Z,993.28
2022-08-02T06:35:50.242Z,993.31
2022-08-02T06:36:50.200Z,993.27
2022-08-02T06:37:50.188Z,993.31
2022-08-02T06:38:50.854Z,993.27
2022-08-02T06:39:50.228Z,993.30
2022-08-02T06:40:50.161Z,993.32
2022-08-02T06:41:51.119Z,993.30
2022-08-02T06:42:50.156Z,993.36
2022-08-02T06:43:50.665Z,993.29
2022-08-02T06:44:53.078Z,993.30
2022-08-02T06:45:50.141Z,993.29
2022-08-02T06:47:11.162Z,993.28
2022-08-02T06:47:51.120Z,993.30
2022-08-02T06:48:50.210Z,993.35
2022-08-02T06:49:52.436Z,993.27
2022-08-02T06:50:50.062Z,993.32
2022-08-02T06:51:50.038Z,993.37
2022-08-02T06:52:50.038Z,993.36
2022-08-02T06:53:50.020Z,993.41
2022-08-02T06:54:50.070Z,993.41
2022-08-02T06:55:50.081Z,993.38
2022-08-02T06:56:50.013Z,993.42
2022-08-02T06:57:50.002Z,993.38
2022-08-02T06:58:49.992Z,993.41
2022-08-02T06:59:49.974Z,993.34
2022-08-02T07:00:49.951Z,993.39
2022-08-02T07:01:49.988Z,993.42
2022-08-02T07:02:49.930Z,993.40
2022-08-02T07:03:50.242Z,993.44
2022-08-02T07:04:49.956Z,993.43
2022-08-02T07:05:49.914Z,993.47
2022-08-02T07:06:49.884Z,993.42
2022-08-02T07:07:49.889Z,993.48
2022-08-02T07:09:17.982Z,993.51
2022-08-02T07:09:57.299Z,993.50
2022-08-02T07:10:51.063Z,993.53
2022-08-02T07:11:49.854Z,993.50
2022-08-02T07:12:49.834Z,993.52
2022-08-02T07:13:49.822Z,993.44
2022-08-02T07:14:49.835Z,993.47
2022-08-02T07:15:49.811Z,993.46
2022-08-02T07:16:49.812Z,993.41
2022-08-02T07:17:49.775Z,993.47
2022-08-02T07:18:49.768Z,993.41
2022-08-02T07:19:49.772Z,993.39
2022-08-02T07:20:50.183Z,993.40
2022-08-02T07:21:57.651Z,993.45
2022-08-02T07:22:50.728Z,993.39
2022-08-02T07:23:49.715Z,993.37
2022-08-02T07:24:49.712Z,993.37
2022-08-02T07:26:03.104Z,993.39
2022-08-02T07:27:10.022Z,993.37
2022-08-02T07:27:50.685Z,993.33
2022-08-02T07:28:49.711Z,993.35
2022-08-02T07:29:49.687Z,993.35
2022-08-02T07:30:49.656Z,993.34
2022-08-02T07:31:49.665Z,993.36
2022-08-02T07:32:49.634Z,993.32
2022-08-02T07:33:49.621Z,993.33
2022-08-02T07:34:52.747Z,993.30
2022-08-02T07:35:49.574Z,993.28
2022-08-02T07:36:49.576Z,993.29
2022-08-02T07:37:55.020Z,993.27
2022-08-02T07:38:50.575Z,993.29
2022-08-02T07:39:49.606Z,993.21
2022-08-02T07:40:49.546Z,993.22
2022-08-02T07:41:49.524Z,993.22
2022-08-02T07:42:49.532Z,993.19
2022-08-02T07:43:49.496Z,993.24
2022-08-02T07:44:49.525Z,993.19
2022-08-02T07:45:55.639Z,993.20
2022-08-02T07:46:50.497Z,993.21
2022-08-02T07:47:50.445Z,993.21
2022-08-02T07:48:49.445Z,993.22
2022-08-02T07:49:49.455Z,993.18
2022-08-02T07:50:49.436Z,993.21
2022-08-02T07:51:49.415Z,993.12
2022-08-02T07:52:49.418Z,993.13
2022-08-02T07:53:50.828Z,993.13
2022-08-02T07:54:49.426Z,993.16
2022-08-02T07:55:54.622Z,993.13
2022-08-02T07:56:50.800Z,993.11
2022-08-02T07:57:50.348Z,993.12
2022-08-02T07:58:49.369Z,993.09
2022-08-02T07:59:49.366Z,993.11
2022-08-02T08:00:49.377Z,993.09
2022-08-02T08:01:49.385Z,993.09
2022-08-02T08:02:49.308Z,993.10
2022-08-02T08:03:49.321Z,993.13
2022-08-02T08:04:49.276Z,993.06
2022-08-02T08:05:49.267Z,993.06
2022-08-02T08:07:59.883Z,993.10
2022-08-02T08:08:59.861Z,993.08
2022-08-02T08:09:59.849Z,993.09
2022-08-02T08:10:59.861Z,993.09
2022-08-02T08:11:59.851Z,993.06
2022-08-02T08:12:59.829Z,993.11
2022-08-02T08:13:59.790Z,993.07
2022-08-02T08:14:59.789Z,993.06
2022-08-02T08:15:59.793Z,993.04
2022-08-02T08:16:59.780Z,993.07
2022-08-02T08:17:59.812Z,993.07
2022-08-02T08:18:59.762Z,993.08
2022-08-02T08:19:59.751Z,993.07
2022-08-02T08:20:59.762Z,993.09
2022-08-02T08:21:59.741Z,993.11
2022-08-02T08:22:59.743Z,993.11
2022-08-02T08:23:59.732Z,993.10
2022-08-02T08:24:59.701Z,993.14
2022-08-02T08:26:00.321Z,993.11
2022-08-02T08:26:59.670Z,993.07
2022-08-02T08:27:59.662Z,993.05
2022-08-02T08:28:59.652Z,993.00
2022-08-02T08:29:59.670Z,992.94
2022-08-02T08:30:59.621Z,992.96
2022-08-02T08:31:59.647Z,992.91
2022-08-02T08:32:59.613Z,992.94
2022-08-02T08:33:59.603Z,992.99
2022-08-02T08:34:59.595Z,992.99
2022-08-02T08:35:59.574Z,992.96
2022-08-02T08:36:59.613Z,993.01
2022-08-02T08:38:03.007Z,992.99
2022-08-02T08:39:00.542Z,993.03
2022-08-02T08:39:59.562Z,993.01
2022-08-02T08:40:59.555Z,993.07
2022-08-02T08:41:59.513Z,993.01
2022-08-02T08:42:59.514Z,993.00
2022-08-02T08:43:59.494Z,993.00
2022-08-02T08:44:59.585Z,992.98
2022-08-02T08:45:59.724Z,992.97
2022-08-02T08:46:59.484Z,993.00
2022-08-02T08:47:59.453Z,992.95
2022-08-02T08:48:59.448Z,992.95
2022-08-02T08:49:59.433Z,992.95
2022-08-02T08:50:59.441Z,992.96
2022-08-02T08:51:59.405Z,992.88
2022-08-02T08:53:00.363Z,992.93
2022-08-02T08:53:59.435Z,992.93
2022-08-02T08:54:59.477Z,992.96
2022-08-02T08:55:59.465Z,993.01
2022-08-02T08:56:59.753Z,993.04
2022-08-02T08:58:00.344Z,992.95
2022-08-02T08:58:59.365Z,992.92
2022-08-02T08:59:59.356Z,992.89
2022-08-02T09:00:59.362Z,992.89
2022-08-02T09:01:59.372Z,992.85
2022-08-02T09:03:00.336Z,992.86
2022-08-02T09:03:59.288Z,992.83
2022-08-02T09:04:59.274Z,992.86
2022-08-02T09:05:59.743Z,992.83
2022-08-02T09:06:59.253Z,992.81
2022-08-02T09:07:59.249Z,992.82
2022-08-02T09:08:59.263Z,992.81
2022-08-02T09:09:59.227Z,992.79
2022-08-02T09:10:59.235Z,992.76
2022-08-02T09:11:59.206Z,992.78
2022-08-02T09:12:59.206Z,992.78
2022-08-02T09:13:59.199Z,992.77
2022-08-02T09:14:59.225Z,992.80
2022-08-02T09:15:59.158Z,992.79
2022-08-02T09:17:00.266Z,992.78
2022-08-02T09:17:59.138Z,992.82
2022-08-02T09:18:59.126Z,992.85
2022-08-02T09:19:59.117Z,992.85
2022-08-02T09:20:59.115Z,992.82
2022-08-02T09:21:59.126Z,992.87
2022-08-02T09:22:59.097Z,992.89
2022-08-02T09:23:59.085Z,992.89
2022-08-02T09:24:59.075Z,992.90
2022-08-02T09:26:00.334Z,992.88
2022-08-02T09:26:59.050Z,992.90
2022-08-02T09:27:59.257Z,992.92
2022-08-02T09:28:59.028Z,992.85
2022-08-02T09:30:13.754Z,992.86
2022-08-02T09:31:00.017Z,992.80
2022-08-02T09:31:59.063Z,992.82
2022-08-02T09:32:59.008Z,992.87
2022-08-02T09:33:59.982Z,992.82
2022-08-02T09:34:58.970Z,992.86
2022-08-02T09:36:06.878Z,992.82
2022-08-02T09:36:59.969Z,992.85
2022-08-02T09:37:58.940Z,992.90
2022-08-02T09:38:58.940Z,992.95
2022-08-02T09:39:59.645Z,992.91
2022-08-02T09:40:58.901Z,992.85
2022-08-02T09:41:58.908Z,992.84
2022-08-02T09:42:58.888Z,992.92
2022-08-02T09:44:05.043Z,992.90
2022-08-02T09:44:59.858Z,992.85
2022-08-02T09:45:58.981Z,992.88
2022-08-02T09:46:58.842Z,992.90
2022-08-02T09:47:58.839Z,992.85
2022-08-02T09:48:58.877Z,992.83
2022-08-02T09:49:58.820Z,992.85
2022-08-02T09:50:58.822Z,992.86
2022-08-02T09:51:59.290Z,992.80
2022-08-02T09:52:58.782Z,992.76
2022-08-02T09:54:08.502Z,992.73
2022-08-02T09:54:59.749Z,992.66
2022-08-02T09:56:03.469Z,992.69
2022-08-02T09:56:58.739Z,992.64
2022-08-02T09:57:58.788Z,992.65
2022-08-02T09:58:58.708Z,992.63
2022-08-02T09:59:58.708Z,992.60
2022-08-02T10:00:58.792Z,992.63
2022-08-02T10:02:02.529Z,992.64
2022-08-02T10:02:59.704Z,992.65
2022-08-02T10:03:58.661Z,992.63
2022-08-02T10:04:58.672Z,992.68
2022-08-02T10:06:02.252Z,992.66
2022-08-02T10:06:58.689Z,992.71
2022-08-02T10:07:58.676Z,992.70
2022-08-02T10:08:58.631Z,992.69
2022-08-02T10:09:58.605Z,992.66
2022-08-02T10:10:58.591Z,992.71
2022-08-02T10:11:58.580Z,992.64
2022-08-02T10:12:58.599Z,992.65
2022-08-02T10:13:58.569Z,992.63
2022-08-02T10:14:58.541Z,992.62
2022-08-02T10:15:58.554Z,992.73
2022-08-02T10:16:58.606Z,992.68
2022-08-02T10:17:58.540Z,992.69
2022-08-02T10:18:58.533Z,992.62
2022-08-02T10:20:02.287Z,992.59
2022-08-02T10:20:59.561Z,992.60
2022-08-02T10:21:58.483Z,992.53
2022-08-02T10:22:58.555Z,992.51
2022-08-02T10:23:58.511Z,992.49
2022-08-02T10:24:58.481Z,992.48
2022-08-02T10:26:00.400Z,992.46
2022-08-02T10:26:58.450Z,992.44
2022-08-02T10:28:05.128Z,992.47
2022-08-02T10:28:59.410Z,992.42
2022-08-02T10:29:58.429Z,992.41
2022-08-02T10:30:58.388Z,992.44
2022-08-02T10:31:58.398Z,992.40
2022-08-02T10:32:59.351Z,992.38
2022-08-02T10:33:58.371Z,992.38
2022-08-02T10:34:59.305Z,992.41
2022-08-02T10:36:04.397Z,992.36
2022-08-02T10:36:59.324Z,992.40
2022-08-02T10:37:58.333Z,992.38
2022-08-02T10:38:58.321Z,992.36
2022-08-02T10:39:58.303Z,992.44
2022-08-02T10:40:58.309Z,992.38
2022-08-02T10:41:58.738Z,992.39
2022-08-02T10:42:58.253Z,992.34
2022-08-02T10:43:58.270Z,992.34
2022-08-02T10:44:58.253Z,992.32
2022-08-02T10:45:58.245Z,992.37
2022-08-02T10:46:58.283Z,992.29
2022-08-02T10:47:58.221Z,992.29
2022-08-02T10:48:58.273Z,992.31
2022-08-02T10:49:58.343Z,992.36
2022-08-02T10:50:58.173Z,992.29
2022-08-02T10:51:58.173Z,992.32
2022-08-02T10:52:58.164Z,992.28
2022-08-02T10:53:58.164Z,992.27
2022-08-02T10:54:58.132Z,992.34
2022-08-02T10:55:58.376Z,992.33
2022-08-02T10:56:58.117Z,992.27
2022-08-02T10:57:58.115Z,992.28
2022-08-02T10:58:58.106Z,992.20
2022-08-02T10:59:58.105Z,992.16
2022-08-02T11:00:58.179Z,992.18
2022-08-02T11:02:00.919Z,992.23
2022-08-02T11:02:58.077Z,992.22
2022-08-02T11:03:58.076Z,992.14
2022-08-02T11:04:58.305Z,992.26
2022-08-02T11:05:58.024Z,992.14
2022-08-02T11:06:58.038Z,992.20
2022-08-02T11:07:58.012Z,992.21
2022-08-02T11:08:58.023Z,992.19
2022-08-02T11:09:58.984Z,992.17
2022-08-02T11:10:57.974Z,992.16
2022-08-02T11:11:57.966Z,992.14
2022-08-02T11:12:57.977Z,992.12
2022-08-02T11:13:58.307Z,992.13
2022-08-02T11:14:57.972Z,992.09
2022-08-02T11:15:57.917Z,992.05
2022-08-02T11:16:57.929Z,992.09
2022-08-02T11:17:57.927Z,992.04
2022-08-02T11:18:57.897Z,992.02
2022-08-02T11:19:57.917Z,992.07
2022-08-02T11:20:57.877Z,992.05
2022-08-02T11:21:57.867Z,992.07
2022-08-02T11:22:57.887Z,992.03
2022-08-02T11:23:57.876Z,992.03
2022-08-02T11:24:57.867Z,992.09
2022-08-02T11:26:11.407Z,992.07
2022-08-02T11:26:58.815Z,992.08
2022-08-02T11:27:57.807Z,992.09
2022-08-02T11:28:57.871Z,992.12
2022-08-02T11:29:57.857Z,992.19
2022-08-02T11:30:57.779Z,992.21
2022-08-02T11:31:57.808Z,992.16
2022-08-02T11:32:57.767Z,992.15
2022-08-02T11:33:57.807Z,992.08
2022-08-02T11:34:58.298Z,992.15
2022-08-02T11:35:57.739Z,992.11
2022-08-02T11:36:57.729Z,992.16
2022-08-02T11:37:57.717Z,992.08
2022-08-02T11:38:57.698Z,992.12
2022-08-02T11:39:57.721Z,992.15
2022-08-02T11:40:57.742Z,992.20
2022-08-02T11:41:57.880Z,992.17
2022-08-02T11:42:57.648Z,992.16
2022-08-02T11:43:57.671Z,992.14
2022-08-02T11:44:57.657Z,992.24
2022-08-02T11:45:57.619Z,992.25
2022-08-02T11:46:57.610Z,992.26
2022-08-02T11:47:57.599Z,992.16
2022-08-02T11:48:57.635Z,992.24
2022-08-02T11:49:57.588Z,992.21
2022-08-02T11:50:57.588Z,992.23
2022-08-02T11:51:57.577Z,992.16
2022-08-02T11:52:57.615Z,992.17
2022-08-02T11:53:57.541Z,992.13
2022-08-02T11:54:57.558Z,992.11
2022-08-02T11:55:57.581Z,992.07
2022-08-02T11:56:57.570Z,992.14
2022-08-02T11:58:03.926Z,992.09
2022-08-02T11:58:58.502Z,992.03
2022-08-02T11:59:57.471Z,991.97
2022-08-02T12:00:57.518Z,991.92
2022-08-02T12:01:57.455Z,991.89
2022-08-02T12:02:57.487Z,991.89
2022-08-02T12:03:57.441Z,991.94
2022-08-02T12:04:58.583Z,991.95
2022-08-02T12:06:06.143Z,991.91
2022-08-02T12:06:58.750Z,991.90
2022-08-02T12:07:57.392Z,991.87
2022-08-02T12:08:57.405Z,992.01
2022-08-02T12:09:57.373Z,991.91
2022-08-02T12:10:57.372Z,991.96
2022-08-02T12:11:57.363Z,991.98
2022-08-02T12:12:57.373Z,991.97
2022-08-02T12:13:57.523Z,991.90
2022-08-02T12:14:57.368Z,991.84
2022-08-02T12:15:57.845Z,991.87
2022-08-02T12:16:57.317Z,991.90
2022-08-02T12:17:57.281Z,991.86
2022-08-02T12:18:57.296Z,991.88
2022-08-02T12:19:57.261Z,991.93
2022-08-02T12:20:57.272Z,991.90
2022-08-02T12:21:57.281Z,991.92
2022-08-02T12:22:57.241Z,991.92
2022-08-02T12:24:00.801Z,991.92
2022-08-02T12:24:57.222Z,991.89
2022-08-02T12:25:57.233Z,991.84
2022-08-02T12:26:57.353Z,991.89
2022-08-02T12:27:57.228Z,991.86
2022-08-02T12:28:57.214Z,991.84
2022-08-02T12:29:59.023Z,991.84
2022-08-02T12:30:57.161Z,991.85